Time;durP1;ratioP1;P1;durP2;ratioP2;P2;SDS_P1;SDS_P2;PMS_P1;PMS_P2;Temp;Humidity;BMP_temperature;BMP_pressure;BME280_temperature;BME280_humidity;BME280_pressure;Samples;Min_cycle;Max_cycle;Signal;HPM_P1;HPM_P2
2022/09/23 00:00:44;;;;;;;2.00;1.10;;;9.40;99.90;;;;;;5010016;28;20474;-82
2022/09/23 00:03:14;;;;;;;4.20;1.10;;;9.40;99.90;;;;;;5006152;28;20026;-82
2022/09/23 00:05:39;;;;;;;2.85;1.30;;;9.30;99.90;;;;;;5018011;28;20121;-82
2022/09/23 00:08:07;;;;;;;4.00;1.30;;;9.30;99.90;;;;;;5005629;28;20045;-82
2022/09/23 00:10:36;;;;;;;3.08;1.33;;;9.50;99.90;;;;;;5006416;28;20021;-81
2022/09/23 00:13:03;;;;;;;2.97;1.27;;;9.20;99.90;;;;;;4995163;28;20030;-82
2022/09/23 00:15:36;;;;;;;3.20;1.30;;;9.20;99.90;;;;;;5009800;28;20037;-81
2022/09/23 00:18:02;;;;;;;3.22;1.20;;;9.20;99.90;;;;;;5014191;28;20542;-82
2022/09/23 00:20:28;;;;;;;2.83;1.10;;;9.20;99.90;;;;;;5021616;28;20068;-82
2022/09/23 00:22:54;;;;;;;3.17;1.30;;;9.10;99.90;;;;;;5006364;28;20093;-82
2022/09/23 00:25:19;;;;;;;2.65;0.90;;;9.50;99.90;;;;;;5005888;28;20028;-82
2022/09/23 00:27:47;;;;;;;4.68;1.20;;;9.10;99.90;;;;;;5017643;28;20391;-82
2022/09/23 00:30:17;;;;;;;1.85;0.90;;;9.10;99.90;;;;;;5011110;28;20080;-82
2022/09/23 00:32:43;;;;;;;3.25;1.30;;;9.70;99.90;;;;;;5009660;28;20041;-83
2022/09/23 00:35:11;;;;;;;3.20;1.30;;;9.10;99.90;;;;;;5007981;28;20026;-83
2022/09/23 00:37:39;;;;;;;2.70;1.00;;;9.10;99.90;;;;;;5019889;28;20025;-82
2022/09/23 00:40:08;;;;;;;3.25;1.25;;;9.00;99.90;;;;;;5019462;28;20397;-83
2022/09/23 00:42:36;;;;;;;3.20;1.27;;;9.00;99.90;;;;;;5006894;28;20038;-82
2022/09/23 00:45:03;;;;;;;2.83;1.00;;;9.40;99.90;;;;;;5006290;28;20065;-82
2022/09/23 00:47:38;;;;;;;2.53;0.98;;;8.90;99.90;;;;;;5010424;28;20030;-82
2022/09/23 00:50:29;;;;;;;3.28;1.30;;;8.90;99.90;;;;;;5006869;28;20033;-82
2022/09/23 00:52:58;;;;;;;5.15;1.23;;;8.90;99.90;;;;;;5018079;28;20061;-82
2022/09/23 00:55:32;;;;;;;2.33;1.45;;;8.90;99.90;;;;;;5009266;28;20249;-82
2022/09/23 00:58:02;;;;;;;4.93;1.15;;;8.90;99.90;;;;;;5007112;28;20025;-81
2022/09/23 01:00:28;;;;;;;3.47;1.30;;;8.80;99.90;;;;;;5011712;28;20049;-82
2022/09/23 01:02:54;;;;;;;3.10;1.33;;;8.80;99.90;;;;;;5003665;28;20117;-82
2022/09/23 01:05:20;;;;;;;3.35;1.35;;;8.80;99.90;;;;;;5009744;28;20050;-83
2022/09/23 01:07:47;;;;;;;4.68;1.20;;;8.80;99.90;;;;;;5019396;28;20057;-82
2022/09/23 01:10:14;;;;;;;2.80;1.08;;;8.80;99.90;;;;;;5017965;28;20386;-84
2022/09/23 01:12:49;;;;;;;2.72;1.13;;;8.80;99.90;;;;;;5014612;28;20119;-81
2022/09/23 01:15:37;;;;;;;3.00;1.30;;;8.70;99.90;;;;;;5008978;28;20026;-82
2022/09/23 01:18:37;;;;;;;4.20;1.30;;;8.70;99.90;;;;;;5011757;28;20494;-83
2022/09/23 01:21:24;;;;;;;2.22;1.00;;;8.70;99.90;;;;;;4999795;28;20636;-82
2022/09/23 01:24:21;;;;;;;2.67;1.05;;;8.70;99.90;;;;;;5022577;28;20026;-82
2022/09/23 01:27:12;;;;;;;4.50;1.17;;;8.70;99.90;;;;;;5006533;28;20034;-83
2022/09/23 01:29:41;;;;;;;2.83;1.20;;;8.70;99.90;;;;;;5013045;28;20029;-82
2022/09/23 01:32:22;;;;;;;4.50;1.75;;;8.70;99.90;;;;;;5024061;28;20149;-83
2022/09/23 01:34:58;;;;;;;2.80;1.17;;;8.70;99.90;;;;;;5023350;28;20033;-82
2022/09/23 01:37:52;;;;;;;3.72;1.67;;;8.60;99.90;;;;;;5031183;28;20490;-83
2022/09/23 01:40:36;;;;;;;4.13;1.60;;;8.60;99.90;;;;;;4977226;28;20093;-83
2022/09/23 01:43:33;;;;;;;2.33;1.10;;;8.60;99.90;;;;;;5018287;28;20381;-82
2022/09/23 01:46:02;;;;;;;3.10;1.20;;;8.50;99.90;;;;;;4984123;28;20049;-83
2022/09/23 01:48:41;;;;;;;3.63;1.38;;;8.50;99.90;;;;;;5014665;28;20025;-82
2022/09/23 01:51:10;;;;;;;3.47;1.38;;;8.50;99.90;;;;;;5003275;28;20017;-83
2022/09/23 01:53:49;;;;;;;3.90;1.40;;;8.50;99.90;;;;;;5011012;28;20113;-83
2022/09/23 01:56:30;;;;;;;3.58;1.55;;;8.60;99.90;;;;;;5009909;28;20041;-83
2022/09/23 01:59:08;;;;;;;2.95;1.30;;;8.40;99.90;;;;;;5023505;28;20048;-82
2022/09/23 02:01:55;;;;;;;3.40;1.55;;;8.80;99.90;;;;;;5011667;28;20022;-82
2022/09/23 02:04:29;;;;;;;3.58;1.20;;;8.40;99.90;;;;;;5020790;28;20029;-83
2022/09/23 02:07:02;;;;;;;2.83;1.13;;;8.50;99.90;;;;;;5024914;28;20049;-82
2022/09/23 02:09:39;;;;;;;4.38;1.75;;;8.40;99.90;;;;;;5022086;28;20025;-83
2022/09/23 02:12:12;;;;;;;3.00;1.23;;;8.40;99.90;;;;;;5018866;28;20022;-82
2022/09/23 02:15:02;;;;;;;3.63;1.52;;;8.30;99.90;;;;;;5009276;28;20085;-83
2022/09/23 02:17:44;;;;;;;2.95;1.20;;;8.30;99.90;;;;;;5024064;28;20018;-81
2022/09/23 02:20:14;;;;;;;2.78;1.17;;;8.30;99.90;;;;;;5000989;28;20022;-82
2022/09/23 02:22:55;;;;;;;4.43;1.58;;;8.40;99.90;;;;;;5022721;28;20028;-83
2022/09/23 02:25:30;;;;;;;3.25;1.20;;;8.20;99.90;;;;;;5013676;28;20054;-83
2022/09/23 02:28:06;;;;;;;3.47;1.35;;;8.30;99.90;;;;;;5024145;28;20089;-83
2022/09/23 02:30:44;;;;;;;2.42;1.10;;;8.20;99.90;;;;;;5016621;28;20025;-83
2022/09/23 02:33:37;;;;;;;7.25;1.85;;;8.10;99.90;;;;;;5012248;28;20040;-82
2022/09/23 02:36:31;;;;;;;2.85;1.08;;;8.20;99.90;;;;;;5004933;28;20029;-82
2022/09/23 02:39:05;;;;;;;4.63;1.38;;;8.20;99.90;;;;;;5019853;28;20034;-83
2022/09/23 02:42:13;;;;;;;3.08;1.40;;;8.20;99.90;;;;;;5009218;28;20021;-82
2022/09/23 02:44:39;;;;;;;4.75;1.50;;;8.20;99.90;;;;;;4919229;29;20066;-83
2022/09/23 02:47:06;;;;;;;3.13;1.50;;;8.20;99.90;;;;;;4997757;28;20113;-82
2022/09/23 02:49:34;;;;;;;3.47;1.60;;;8.10;99.90;;;;;;5019649;28;20026;-83
2022/09/23 02:52:04;;;;;;;3.03;1.50;;;8.10;99.90;;;;;;5003887;28;20025;-83
2022/09/23 02:54:34;;;;;;;3.35;1.40;;;8.10;99.90;;;;;;5012538;28;20057;-82
2022/09/23 02:57:05;;;;;;;3.72;1.80;;;8.40;99.90;;;;;;5005859;28;20030;-83
2022/09/23 02:59:35;;;;;;;3.05;1.60;;;8.10;99.90;;;;;;5011306;28;20021;-83
2022/09/23 03:02:20;;;;;;;2.67;1.35;;;8.00;99.90;;;;;;5021227;28;20137;-82
2022/09/23 03:05:22;;;;;;;3.08;1.50;;;8.10;99.90;;;;;;5018935;28;20029;-84
2022/09/23 03:08:18;;;;;;;4.55;1.60;;;8.00;99.90;;;;;;5049791;23;20048;-86
2022/09/23 03:11:03;;;;;;;2.95;1.33;;;8.00;99.90;;;;;;5011251;28;20371;-86
2022/09/23 03:13:52;;;;;;;3.78;1.77;;;8.00;99.90;;;;;;5012944;28;20366;-87
2022/09/23 03:16:27;;;;;;;4.13;1.52;;;8.00;99.90;;;;;;5006923;28;20090;-87
2022/09/23 03:19:16;;;;;;;4.55;1.58;;;8.00;99.90;;;;;;5000247;28;20058;-87
2022/09/23 03:22:06;;;;;;;3.03;1.33;;;8.00;99.90;;;;;;4988002;28;20109;-87
2022/09/23 03:24:34;;;;;;;4.75;1.45;;;8.00;99.90;;;;;;5012084;28;20091;-87
2022/09/23 03:27:12;;;;;;;3.08;1.45;;;7.90;99.90;;;;;;5005072;28;20025;-86
2022/09/23 03:29:44;;;;;;;2.67;1.40;;;7.90;99.90;;;;;;5010094;28;20041;-85
2022/09/23 03:32:11;;;;;;;2.92;1.38;;;7.80;99.90;;;;;;5001282;28;20045;-87
2022/09/23 03:34:41;;;;;;;2.95;1.30;;;7.80;99.90;;;;;;5003810;28;20027;-87
2022/09/23 03:37:14;;;;;;;4.95;1.13;;;7.80;99.90;;;;;;5005273;28;20025;-86
2022/09/23 03:39:43;;;;;;;3.72;1.80;;;7.80;99.90;;;;;;5000380;28;20109;-87
2022/09/23 03:42:11;;;;;;;3.53;1.33;;;7.70;99.90;;;;;;5005287;28;20029;-87
2022/09/23 03:44:48;;;;;;;3.80;1.27;;;7.70;99.90;;;;;;5000064;28;20034;-87
2022/09/23 03:47:15;;;;;;;5.18;1.63;;;7.70;99.90;;;;;;5000463;28;20021;-86
2022/09/23 03:49:44;;;;;;;6.15;1.80;;;7.70;99.90;;;;;;4994127;28;20053;-85
2022/09/23 03:52:10;;;;;;;5.82;1.50;;;7.70;99.90;;;;;;4999393;28;21359;-87
2022/09/23 03:54:35;;;;;;;4.28;1.85;;;7.70;99.90;;;;;;5001698;28;20013;-87
2022/09/23 03:57:01;;;;;;;3.92;1.40;;;7.70;99.90;;;;;;5002931;28;20026;-87
2022/09/23 03:59:29;;;;;;;3.67;1.45;;;7.60;99.90;;;;;;5000301;28;20507;-86
2022/09/23 04:01:55;;;;;;;4.97;1.48;;;7.60;99.90;;;;;;5003065;28;20487;-87
2022/09/23 04:04:21;;;;;;;3.00;1.40;;;7.60;99.90;;;;;;5002023;28;20022;-87
2022/09/23 04:06:47;;;;;;;3.28;1.48;;;7.70;99.90;;;;;;4989339;28;20399;-87
2022/09/23 04:09:13;;;;;;;4.43;1.50;;;7.60;99.90;;;;;;4990670;28;20026;-87
2022/09/23 04:11:38;;;;;;;2.75;1.40;;;7.60;99.90;;;;;;4991893;28;20125;-87
2022/09/23 04:14:06;;;;;;;3.58;1.35;;;7.60;99.90;;;;;;4999609;28;20419;-86
2022/09/23 04:16:32;;;;;;;3.10;1.30;;;7.60;99.90;;;;;;4996682;28;20045;-86
2022/09/23 04:18:58;;;;;;;2.83;1.27;;;7.50;99.90;;;;;;4997279;28;20448;-87
2022/09/23 04:21:23;;;;;;;4.00;1.50;;;7.60;99.90;;;;;;4998571;28;20519;-87
2022/09/23 04:23:49;;;;;;;3.67;1.05;;;7.50;99.90;;;;;;4994939;28;20180;-87
2022/09/23 04:26:15;;;;;;;3.63;1.52;;;7.50;99.90;;;;;;5001857;28;20497;-86
2022/09/23 04:28:40;;;;;;;4.43;1.30;;;7.50;99.90;;;;;;5003906;28;20018;-87
2022/09/23 04:31:08;;;;;;;3.70;1.52;;;7.50;99.90;;;;;;4995625;28;20037;-87
2022/09/23 04:33:34;;;;;;;2.80;1.17;;;7.50;99.90;;;;;;4995276;28;20053;-87
2022/09/23 04:36:00;;;;;;;3.50;1.20;;;7.70;99.90;;;;;;5010612;28;20026;-87
2022/09/23 04:38:26;;;;;;;2.63;1.38;;;7.40;99.90;;;;;;4997842;28;20026;-86
2022/09/23 04:40:51;;;;;;;4.63;1.98;;;7.40;99.90;;;;;;4988843;28;20039;-87
2022/09/23 04:43:17;;;;;;;2.90;1.50;;;7.40;99.90;;;;;;4985012;28;20570;-86
2022/09/23 04:45:43;;;;;;;2.97;1.40;;;7.40;99.90;;;;;;4985303;28;20019;-87
2022/09/23 04:48:11;;;;;;;3.40;1.40;;;7.40;99.90;;;;;;4989728;28;20038;-86
2022/09/23 04:50:37;;;;;;;4.63;1.67;;;7.30;99.90;;;;;;4996768;28;20030;-86
2022/09/23 04:53:04;;;;;;;3.38;1.52;;;7.30;99.90;;;;;;4996445;28;20056;-86
2022/09/23 04:55:30;;;;;;;6.68;1.95;;;7.30;99.90;;;;;;4996887;28;20081;-86
2022/09/23 04:57:56;;;;;;;5.55;1.80;;;7.40;99.90;;;;;;4995869;28;20038;-86
2022/09/23 05:00:23;;;;;;;4.97;1.88;;;7.70;99.90;;;;;;4992180;28;20097;-86
2022/09/23 05:02:49;;;;;;;4.68;1.95;;;7.40;99.90;;;;;;4986680;28;20026;-86
2022/09/23 05:05:19;;;;;;;4.47;1.98;;;7.40;99.90;;;;;;4991644;28;20022;-85
2022/09/23 05:07:44;;;;;;;3.53;1.60;;;7.40;99.90;;;;;;5001588;28;20030;-86
2022/09/23 05:10:10;;;;;;;4.95;1.80;;;7.40;99.90;;;;;;4983304;28;20051;-86
2022/09/23 05:12:36;;;;;;;3.28;1.48;;;7.40;99.90;;;;;;4985136;28;20026;-86
2022/09/23 05:15:02;;;;;;;4.40;1.80;;;7.50;99.90;;;;;;4983174;28;20545;-86
2022/09/23 05:17:30;;;;;;;4.10;1.63;;;7.50;99.90;;;;;;5001844;28;20023;-85
2022/09/23 05:19:56;;;;;;;3.97;1.55;;;7.40;99.90;;;;;;4986991;28;20034;-85
2022/09/23 05:22:22;;;;;;;6.05;1.73;;;7.50;99.90;;;;;;5002761;28;20109;-88
2022/09/23 05:24:48;;;;;;;4.63;2.13;;;7.50;99.90;;;;;;4988755;28;20107;-86
2022/09/23 05:27:13;;;;;;;3.78;1.50;;;7.60;99.90;;;;;;4987289;28;20054;-85
2022/09/23 05:29:39;;;;;;;4.65;1.85;;;7.50;99.90;;;;;;4985598;28;20031;-86
2022/09/23 05:32:05;;;;;;;4.50;2.10;;;7.50;99.90;;;;;;5009659;28;20051;-87
2022/09/23 05:34:31;;;;;;;3.42;1.55;;;7.50;99.90;;;;;;4995290;28;20034;-87
2022/09/23 05:36:57;;;;;;;3.17;1.58;;;7.50;99.90;;;;;;5010684;28;20161;-85
2022/09/23 05:39:22;;;;;;;3.53;1.52;;;7.60;99.90;;;;;;4995170;28;20487;-84
2022/09/23 05:41:48;;;;;;;5.50;1.50;;;7.60;99.90;;;;;;5005737;28;20021;-85
2022/09/23 05:44:14;;;;;;;4.00;1.55;;;7.60;99.90;;;;;;4999151;28;20486;-85
2022/09/23 05:46:39;;;;;;;2.33;1.20;;;7.60;99.90;;;;;;5002493;28;20730;-84
2022/09/23 05:49:06;;;;;;;3.42;1.30;;;7.60;99.90;;;;;;5000957;28;20109;-84
2022/09/23 05:51:33;;;;;;;5.25;1.63;;;7.60;99.90;;;;;;5010398;28;20061;-84
2022/09/23 05:54:01;;;;;;;2.50;1.27;;;7.90;99.90;;;;;;4991285;28;20121;-84
2022/09/23 05:56:28;;;;;;;2.90;1.63;;;7.70;99.90;;;;;;5001812;28;20026;-84
2022/09/23 05:58:56;;;;;;;3.30;1.38;;;7.80;99.90;;;;;;5004559;28;20483;-85
2022/09/23 06:01:23;;;;;;;5.32;1.83;;;7.90;99.90;;;;;;4999613;28;20383;-85
2022/09/23 06:03:50;;;;;;;3.88;1.58;;;7.80;99.90;;;;;;5010973;28;20049;-84
2022/09/23 06:06:19;;;;;;;4.80;1.63;;;7.90;99.90;;;;;;5003366;28;20022;-84
2022/09/23 06:08:46;;;;;;;4.43;1.70;;;8.00;99.90;;;;;;5007903;28;20026;-84
2022/09/23 06:11:12;;;;;;;3.67;1.50;;;8.10;99.90;;;;;;5007389;28;20637;-85
2022/09/23 06:13:39;;;;;;;3.88;1.58;;;8.20;99.90;;;;;;5010206;28;20025;-87
2022/09/23 06:16:07;;;;;;;4.55;1.67;;;8.10;99.90;;;;;;5005750;28;20124;-86
2022/09/23 06:18:34;;;;;;;2.53;1.42;;;8.20;99.90;;;;;;5002031;28;20034;-87
2022/09/23 06:21:01;;;;;;;4.65;1.85;;;8.30;99.90;;;;;;5010210;28;20044;-85
2022/09/23 06:23:28;;;;;;;3.95;1.60;;;8.30;99.90;;;;;;4984546;28;20356;-87
2022/09/23 06:25:58;;;;;;;3.50;1.50;;;8.40;99.90;;;;;;4984737;28;20038;-86
2022/09/23 06:28:23;;;;;;;9.23;2.50;;;8.60;99.90;;;;;;4994234;28;20026;-86
2022/09/23 06:30:56;;;;;;;4.93;1.88;;;8.50;99.90;;;;;;4996902;28;20096;-87
2022/09/23 06:33:21;;;;;;;4.22;1.58;;;8.60;99.90;;;;;;5002410;28;20418;-86
2022/09/23 06:35:53;;;;;;;3.50;1.50;;;8.70;99.90;;;;;;5001497;28;20029;-86
2022/09/23 06:38:19;;;;;;;5.70;1.40;;;8.70;99.90;;;;;;4998168;28;20178;-87
2022/09/23 06:40:49;;;;;;;2.97;1.48;;;8.90;99.90;;;;;;4993069;28;20105;-87
2022/09/23 06:43:14;;;;;;;3.88;1.30;;;8.80;99.90;;;;;;5006203;28;20386;-87
2022/09/23 06:45:40;;;;;;;3.55;1.38;;;8.90;99.90;;;;;;4995968;28;20018;-86
2022/09/23 06:48:08;;;;;;;3.90;1.40;;;8.90;99.90;;;;;;5003148;28;20058;-85
2022/09/23 06:50:34;;;;;;;2.55;1.20;;;9.00;99.90;;;;;;5001100;28;20371;-86
2022/09/23 06:53:00;;;;;;;3.85;1.52;;;9.20;99.90;;;;;;4998379;28;20026;-86
2022/09/23 06:55:26;;;;;;;3.20;1.50;;;9.10;99.90;;;;;;5007728;28;20053;-85
2022/09/23 06:57:53;;;;;;;4.85;1.83;;;9.00;99.90;;;;;;4998913;28;20034;-85
2022/09/23 07:00:18;;;;;;;3.25;1.63;;;9.00;99.90;;;;;;5015785;28;20386;-85
2022/09/23 07:02:44;;;;;;;5.45;1.70;;;9.10;99.90;;;;;;4999871;28;20018;-85
2022/09/23 07:05:10;;;;;;;3.28;1.30;;;9.20;99.90;;;;;;5002627;28;20093;-86
2022/09/23 07:07:37;;;;;;;3.97;1.50;;;9.30;99.90;;;;;;4991587;28;20033;-86
2022/09/23 07:10:04;;;;;;;2.95;1.55;;;9.50;99.90;;;;;;4993025;28;20028;-85
2022/09/23 07:12:31;;;;;;;3.13;1.60;;;9.60;99.90;;;;;;5001871;28;20034;-86
2022/09/23 07:14:57;;;;;;;3.90;1.77;;;9.70;99.90;;;;;;5003120;28;20384;-86
2022/09/23 07:17:23;;;;;;;3.75;1.50;;;9.80;99.90;;;;;;5002683;28;20038;-86
2022/09/23 07:19:50;;;;;;;3.03;1.42;;;10.20;99.90;;;;;;5017697;28;20022;-86
2022/09/23 07:22:17;;;;;;;7.93;1.45;;;10.10;99.90;;;;;;4998476;28;20022;-86
2022/09/23 07:24:45;;;;;;;6.88;1.55;;;10.20;99.90;;;;;;5008561;28;20475;-85
2022/09/23 07:27:15;;;;;;;4.15;1.27;;;10.30;99.90;;;;;;4989480;28;20057;-85
2022/09/23 07:29:44;;;;;;;3.88;1.33;;;10.40;99.90;;;;;;4982793;28;20022;-86
2022/09/23 07:32:11;;;;;;;3.65;1.70;;;10.50;99.90;;;;;;4999582;28;20023;-86
2022/09/23 07:34:37;;;;;;;2.42;1.20;;;10.60;99.90;;;;;;5006516;28;20034;-86
2022/09/23 07:37:03;;;;;;;4.55;1.35;;;10.80;99.90;;;;;;4997089;28;20026;-87
2022/09/23 07:39:28;;;;;;;5.30;1.75;;;11.30;99.90;;;;;;5000264;28;20022;-86
2022/09/23 07:41:54;;;;;;;2.15;1.10;;;11.30;99.90;;;;;;5002114;28;20109;-85
2022/09/23 07:44:20;;;;;;;2.70;1.30;;;11.50;99.90;;;;;;4998663;28;20364;-86
2022/09/23 07:46:47;;;;;;;3.83;1.25;;;11.70;99.90;;;;;;4996728;28;20023;-87
2022/09/23 07:49:12;;;;;;;5.90;1.83;;;11.70;99.90;;;;;;4996131;28;20022;-86
2022/09/23 07:51:39;;;;;;;3.50;1.40;;;11.60;99.90;;;;;;4995422;28;20037;-85
2022/09/23 07:54:08;;;;;;;3.60;1.33;;;11.60;99.90;;;;;;5001772;28;20022;-86
2022/09/23 07:56:35;;;;;;;4.03;1.55;;;11.70;99.90;;;;;;4995027;28;20057;-86
2022/09/23 07:59:02;;;;;;;2.92;1.35;;;11.70;99.90;;;;;;4991640;28;20402;-85
2022/09/23 08:01:36;;;;;;;2.92;1.42;;;11.60;99.90;;;;;;4990526;28;20487;-87
2022/09/23 08:04:15;;;;;;;5.63;1.38;;;11.70;99.90;;;;;;5004487;28;20027;-86
2022/09/23 08:06:44;;;;;;;3.20;1.20;;;11.60;99.90;;;;;;4998757;28;20033;-88
2022/09/23 08:09:11;;;;;;;3.08;1.30;;;11.80;99.90;;;;;;4993851;28;20080;-87
2022/09/23 08:11:40;;;;;;;3.65;1.33;;;11.80;99.90;;;;;;4998994;28;20010;-86
2022/09/23 08:14:07;;;;;;;6.63;1.38;;;11.80;99.90;;;;;;5007025;28;20061;-87
2022/09/23 08:16:34;;;;;;;2.55;1.17;;;11.80;99.90;;;;;;4982029;28;20360;-86
2022/09/23 08:19:01;;;;;;;3.80;1.38;;;12.00;99.90;;;;;;4989546;28;20321;-86
2022/09/23 08:21:26;;;;;;;3.17;1.80;;;12.00;99.90;;;;;;5003134;28;20022;-85
2022/09/23 08:23:52;;;;;;;2.50;1.27;;;12.00;99.90;;;;;;4997859;28;20049;-87
2022/09/23 08:26:18;;;;;;;3.72;1.40;;;12.00;99.90;;;;;;5000691;28;20021;-86
2022/09/23 08:28:44;;;;;;;5.00;1.10;;;12.40;99.90;;;;;;4996871;28;20483;-87
2022/09/23 08:31:12;;;;;;;4.13;1.40;;;12.30;99.90;;;;;;5002838;28;20018;-86
2022/09/23 08:33:38;;;;;;;2.72;1.30;;;12.50;99.90;;;;;;5001928;28;20024;-85
2022/09/23 08:36:04;;;;;;;2.65;1.23;;;12.50;99.90;;;;;;5001130;28;20490;-86
2022/09/23 08:38:30;;;;;;;5.68;1.27;;;12.60;99.90;;;;;;5001235;28;20030;-87
2022/09/23 08:41:14;;;;;;;3.05;1.27;;;12.90;99.90;;;;;;5001977;28;20077;-87
2022/09/23 08:43:47;;;;;;;3.33;1.42;;;12.90;99.90;;;;;;4995218;28;20023;-86
2022/09/23 08:46:23;;;;;;;3.33;1.40;;;13.00;99.90;;;;;;5003282;28;20489;-87
2022/09/23 08:48:49;;;;;;;3.25;1.30;;;13.20;99.90;;;;;;4994069;28;20046;-87
2022/09/23 08:51:24;;;;;;;3.53;1.23;;;13.30;99.90;;;;;;5005473;28;20021;-87
2022/09/23 08:53:50;;;;;;;5.25;1.15;;;13.40;99.90;;;;;;4994472;28;20104;-86
2022/09/23 08:56:18;;;;;;;3.15;1.08;;;13.50;99.90;;;;;;5002431;28;20060;-87
2022/09/23 08:59:06;;;;;;;2.63;0.95;;;13.60;99.90;;;;;;4986764;28;20014;-88
2022/09/23 09:01:50;;;;;;;3.25;1.40;;;13.70;99.90;;;;;;4995099;28;20031;-87
2022/09/23 09:04:34;;;;;;;3.78;1.17;;;13.60;99.90;;;;;;4991925;28;20524;-86
2022/09/23 09:07:06;;;;;;;3.45;1.33;;;13.60;99.90;;;;;;5002177;28;20100;-87
2022/09/23 09:09:38;;;;;;;3.40;1.15;;;13.60;99.90;;;;;;4995222;28;20113;-86
2022/09/23 09:12:42;;;;;;;2.13;1.02;;;13.70;99.90;;;;;;4991782;28;20018;-86
2022/09/23 09:15:19;;;;;;;2.97;1.20;;;13.80;99.90;;;;;;4993594;28;20045;-86
2022/09/23 09:18:10;;;;;;;3.33;1.17;;;13.80;99.90;;;;;;4998847;28;20035;-86
2022/09/23 09:20:58;;;;;;;2.40;1.15;;;14.00;99.90;;;;;;5000251;28;20101;-86
2022/09/23 09:23:33;;;;;;;2.25;1.25;;;14.10;99.90;;;;;;4985047;28;20018;-86
2022/09/23 09:26:01;;;;;;;2.75;1.10;;;14.20;99.90;;;;;;5003405;28;20018;-86
2022/09/23 09:28:29;;;;;;;2.80;1.45;;;14.50;99.90;;;;;;4986072;28;20027;-87
2022/09/23 09:31:26;;;;;;;3.72;1.15;;;14.60;99.90;;;;;;5004987;28;20027;-86
2022/09/23 09:34:14;;;;;;;3.15;1.30;;;14.60;99.90;;;;;;5000664;28;20030;-86
2022/09/23 09:36:58;;;;;;;2.97;1.30;;;14.60;99.90;;;;;;4993217;28;20380;-85
2022/09/23 09:39:25;;;;;;;2.33;1.25;;;14.60;99.90;;;;;;4995136;28;20038;-86
2022/09/23 09:41:58;;;;;;;2.25;0.90;;;14.70;99.90;;;;;;4998156;28;20037;-86
2022/09/23 09:44:45;;;;;;;1.63;0.85;;;14.90;99.90;;;;;;5001773;28;20567;-86
2022/09/23 09:47:39;;;;;;;2.28;0.80;;;15.10;99.90;;;;;;4994365;28;20030;-85
2022/09/23 09:50:20;;;;;;;2.17;0.98;;;15.20;99.90;;;;;;4991691;28;20030;-86
2022/09/23 09:52:55;;;;;;;3.22;0.80;;;15.30;99.90;;;;;;4999442;28;20026;-86
2022/09/23 09:55:27;;;;;;;2.22;0.90;;;15.50;99.90;;;;;;5002455;28;20082;-87
2022/09/23 09:58:04;;;;;;;1.77;0.77;;;15.70;99.90;;;;;;5020026;28;20069;-86
2022/09/23 10:00:35;;;;;;;2.17;1.10;;;15.80;99.90;;;;;;5009847;28;20036;-86
2022/09/23 10:03:13;;;;;;;2.45;0.70;;;15.90;99.90;;;;;;4997742;28;20061;-86
2022/09/23 10:05:44;;;;;;;1.70;0.75;;;15.90;99.90;;;;;;4998378;28;20026;-85
2022/09/23 10:08:25;;;;;;;1.83;0.85;;;16.10;99.90;;;;;;5002357;28;20042;-85
2022/09/23 10:10:53;;;;;;;1.53;0.60;;;16.30;99.90;;;;;;5005180;28;20120;-85
2022/09/23 10:13:23;;;;;;;2.33;0.70;;;16.50;99.90;;;;;;5000849;28;20450;-85
2022/09/23 10:15:50;;;;;;;1.30;0.60;;;16.60;99.90;;;;;;4998277;28;20018;-86
2022/09/23 10:18:19;;;;;;;1.98;0.77;;;16.90;99.90;;;;;;4996363;28;20089;-86
2022/09/23 10:20:46;;;;;;;8.70;0.65;;;16.80;99.90;;;;;;4992548;28;20026;-85
2022/09/23 10:23:20;;;;;;;2.05;0.90;;;16.80;99.90;;;;;;4996311;28;20022;-85
2022/09/23 10:26:02;;;;;;;2.08;0.70;;;16.70;99.90;;;;;;5001620;28;20541;-85
2022/09/23 10:28:43;;;;;;;1.45;0.63;;;16.80;99.90;;;;;;4999120;28;20081;-85
2022/09/23 10:31:12;;;;;;;1.27;0.50;;;17.10;99.90;;;;;;4997638;28;20033;-85
2022/09/23 10:33:47;;;;;;;1.58;0.60;;;17.20;99.90;;;;;;5002930;28;20426;-85
2022/09/23 10:36:17;;;;;;;1.70;0.60;;;17.20;99.90;;;;;;4991661;28;20022;-85
2022/09/23 10:38:43;;;;;;;2.15;0.88;;;17.30;99.90;;;;;;5017907;28;20364;-85
2022/09/23 10:48:10;;;;;;;1.40;0.60;;;18.00;99.90;;;;;;4985227;28;20037;-85
2022/09/23 10:50:48;;;;;;;2.80;1.05;;;18.40;99.90;;;;;;4994310;28;20052;-85
2022/09/23 10:53:41;;;;;;;1.55;0.75;;;18.20;99.90;;;;;;4982366;28;20438;-85
2022/09/23 10:56:24;;;;;;;1.52;0.50;;;18.20;99.90;;;;;;4985289;28;20061;-85
2022/09/23 10:58:58;;;;;;;1.73;0.70;;;18.40;99.90;;;;;;5004765;28;20030;-84
2022/09/23 11:01:44;;;;;;;1.80;0.63;;;18.30;99.90;;;;;;4998318;28;20018;-84
2022/09/23 11:04:38;;;;;;;1.77;0.68;;;18.50;99.90;;;;;;4989486;28;20398;-85
2022/09/23 11:07:23;;;;;;;1.63;0.50;;;18.60;99.90;;;;;;4990496;28;20040;-84
2022/09/23 11:09:55;;;;;;;2.75;0.98;;;18.70;99.90;;;;;;4999553;28;20040;-86
2022/09/23 11:12:40;;;;;;;1.20;0.60;;;18.60;99.90;;;;;;4997624;28;20049;-85
2022/09/23 11:15:21;;;;;;;1.98;0.85;;;18.60;99.90;;;;;;5011021;28;20025;-84
2022/09/23 11:18:15;;;;;;;2.10;0.75;;;18.20;99.90;;;;;;4994336;28;20030;-84
2022/09/23 11:20:55;;;;;;;2.13;1.00;;;18.20;99.90;;;;;;4988787;28;20109;-84
2022/09/23 11:23:36;;;;;;;3.72;1.02;;;18.50;99.80;;;;;;4996263;28;20037;-84
2022/09/23 11:26:13;;;;;;;3.28;0.88;;;18.80;99.90;;;;;;4998535;28;20052;-84
2022/09/23 11:28:53;;;;;;;1.80;0.70;;;19.20;99.60;;;;;;4993337;28;20018;-83
2022/09/23 11:31:31;;;;;;;1.23;0.50;;;19.60;99.80;;;;;;4988046;28;20443;-84
2022/09/23 11:34:35;;;;;;;3.70;0.90;;;19.60;99.20;;;;;;4990856;28;20030;-84
2022/09/23 11:37:20;;;;;;;1.15;0.50;;;19.50;98.50;;;;;;4989733;28;20030;-85
2022/09/23 11:39:58;;;;;;;3.55;0.50;;;19.30;99.00;;;;;;4990473;28;20030;-84
2022/09/23 11:42:35;;;;;;;1.85;0.80;;;19.10;99.80;;;;;;4990075;28;20105;-85
2022/09/23 11:45:37;;;;;;;1.90;0.70;;;19.00;99.40;;;;;;5009221;28;20149;-84
2022/09/23 11:48:33;;;;;;;2.03;0.90;;;18.70;99.90;;;;;;4993258;28;20042;-85
2022/09/23 11:51:05;;;;;;;1.10;0.50;;;18.40;99.50;;;;;;5000050;28;20037;-84
2022/09/23 11:53:40;;;;;;;2.75;0.88;;;18.20;99.90;;;;;;5005595;28;20019;-85
2022/09/23 11:56:37;;;;;;;1.50;0.80;;;18.20;99.90;;;;;;4989407;28;20046;-84
2022/09/23 11:59:19;;;;;;;1.83;0.65;;;18.40;99.90;;;;;;4962998;28;20050;-85
2022/09/23 12:01:54;;;;;;;3.50;1.10;;;18.30;99.90;;;;;;4988595;28;20058;-85
2022/09/23 12:04:38;;;;;;;3.35;0.73;;;18.20;99.80;;;;;;4987713;28;20456;-84
2022/09/23 12:07:26;;;;;;;1.63;0.65;;;18.10;99.80;;;;;;4991340;28;20032;-85
2022/09/23 12:10:03;;;;;;;1.90;0.70;;;18.50;99.90;;;;;;4995486;28;20027;-85
2022/09/23 12:12:48;;;;;;;3.67;1.15;;;18.80;99.30;;;;;;4994156;28;20053;-85
2022/09/23 12:15:29;;;;;;;2.08;0.80;;;19.30;99.90;;;;;;4986944;28;20032;-84
2022/09/23 12:18:27;;;;;;;4.03;0.90;;;19.70;98.90;;;;;;4991128;28;20041;-84
2022/09/23 12:21:19;;;;;;;4.63;0.90;;;20.10;98.10;;;;;;4987131;28;20027;-85
2022/09/23 12:24:14;;;;;;;1.55;0.63;;;20.40;97.80;;;;;;4988392;28;20138;-84
2022/09/23 12:26:44;;;;;;;1.15;0.60;;;20.50;97.50;;;;;;5008255;28;20495;-84
2022/09/23 12:29:14;;;;;;;2.70;0.73;;;20.50;97.80;;;;;;4998540;28;20073;-85
2022/09/23 12:31:41;;;;;;;3.05;0.90;;;20.40;97.50;;;;;;4995626;28;20105;-85
2022/09/23 12:34:22;;;;;;;4.32;0.93;;;19.90;97.20;;;;;;4992184;28;20025;-84
2022/09/23 12:36:48;;;;;;;2.22;0.80;;;19.70;97.60;;;;;;4994845;28;20118;-85
2022/09/23 12:39:26;;;;;;;6.28;0.80;;;19.30;98.50;;;;;;4979233;28;20058;-85
2022/09/23 12:42:04;;;;;;;3.30;1.00;;;19.30;98.20;;;;;;4985548;28;20026;-84
2022/09/23 12:44:42;;;;;;;2.25;1.02;;;19.20;98.10;;;;;;4989159;28;20096;-84
2022/09/23 12:47:27;;;;;;;2.50;1.17;;;19.10;98.20;;;;;;4992111;28;20061;-85
2022/09/23 12:49:55;;;;;;;2.50;1.00;;;19.10;98.40;;;;;;4993605;28;20647;-85
2022/09/23 12:52:33;;;;;;;1.73;0.70;;;19.30;98.30;;;;;;4993490;28;20578;-85
2022/09/23 12:55:22;;;;;;;2.55;0.70;;;19.50;98.20;;;;;;4992521;28;20050;-85
2022/09/23 12:57:48;;;;;;;1.45;0.68;;;19.90;97.80;;;;;;4967099;28;20046;-84
2022/09/23 13:00:22;;;;;;;2.35;0.90;;;20.20;97.60;;;;;;4989313;28;20119;-85
2022/09/23 13:06:37;;;;;;;1.73;0.60;;;20.40;97.40;;;;;;4993712;28;20153;-86
2022/09/23 13:08:56;;;;;;;2.63;0.90;;;20.40;97.40;;;;;;4941632;29;20095;-87
2022/09/23 13:11:27;;;;;;;2.35;0.70;;;20.50;97.70;;;;;;5001094;28;20042;-86
2022/09/23 13:13:58;;;;;;;2.22;0.90;;;20.70;97.60;;;;;;4998985;28;20038;-86
2022/09/23 13:16:39;;;;;;;2.40;0.90;;;20.70;96.90;;;;;;4995290;28;20033;-86
2022/09/23 13:19:26;;;;;;;2.03;0.70;;;20.80;97.30;;;;;;4987800;28;20038;-86
2022/09/23 13:22:05;;;;;;;2.03;0.82;;;21.20;97.10;;;;;;5005219;28;20050;-86
2022/09/23 13:24:39;;;;;;;4.40;0.90;;;21.20;97.00;;;;;;4994446;28;20027;-86
2022/09/23 13:27:32;;;;;;;1.55;0.70;;;21.30;96.80;;;;;;4997032;28;20049;-86
2022/09/23 13:29:59;;;;;;;2.58;0.98;;;21.20;96.20;;;;;;5002310;28;20022;-85
2022/09/23 13:32:30;;;;;;;2.65;1.00;;;20.60;96.60;;;;;;5005805;28;20077;-84
2022/09/23 13:35:00;;;;;;;2.15;0.95;;;20.40;96.60;;;;;;5024389;28;20086;-85